Pasajes Aéreos y Vuelos Baratos a Natal

Encontranos en
En el mes de
SalidaRegresoDíasConexionesDisponibilidad
Vie 04/10/20192019-10-04Jue 10/10/20192019-10-106ConexionesVer disponibilidad>10https://an.despegar.com/ad/1040?q=shop%2Fflights%2Fresults%2Froundtrip%2FBUE%2FNAT%2F2019-10-04%2F2019-10-10%2F1%2F0%2F0
Lun 07/10/20192019-10-07Mie 16/10/20192019-10-169ConexionesVer disponibilidad>10https://an.despegar.com/ad/1040?q=shop%2Fflights%2Fresults%2Froundtrip%2FBUE%2FNAT%2F2019-10-07%2F2019-10-16%2F1%2F0%2F0
Lun 07/10/20192019-10-07Lun 14/10/20192019-10-147ConexionesVer disponibilidad>10https://an.despegar.com/ad/1040?q=shop%2Fflights%2Fresults%2Froundtrip%2FBUE%2FNAT%2F2019-10-07%2F2019-10-14%2F1%2F0%2F0
Lun 07/10/20192019-10-07Jue 17/10/20192019-10-1710ConexionesVer disponibilidad>10https://an.despegar.com/ad/1040?q=shop%2Fflights%2Fresults%2Froundtrip%2FBUE%2FNAT%2F2019-10-07%2F2019-10-17%2F1%2F0%2F0
Mar 08/10/20192019-10-08Vie 18/10/20192019-10-1810ConexionesVer disponibilidad>10https://an.despegar.com/ad/1040?q=shop%2Fflights%2Fresults%2Froundtrip%2FBUE%2FNAT%2F2019-10-08%2F2019-10-18%2F1%2F0%2F0
Mar 08/10/20192019-10-08Jue 07/11/20192019-11-0730ConexionesVer disponibilidad>10https://an.despegar.com/ad/1040?q=shop%2Fflights%2Fresults%2Froundtrip%2FBUE%2FNAT%2F2019-10-08%2F2019-11-07%2F1%2F0%2F0
Mar 08/10/20192019-10-08Mie 16/10/20192019-10-168ConexionesVer disponibilidad>10https://an.despegar.com/ad/1040?q=shop%2Fflights%2Fresults%2Froundtrip%2FBUE%2FNAT%2F2019-10-08%2F2019-10-16%2F1%2F0%2F0
Mar 08/10/20192019-10-08Jue 17/10/20192019-10-179ConexionesVer disponibilidad>10https://an.despegar.com/ad/1040?q=shop%2Fflights%2Fresults%2Froundtrip%2FBUE%2FNAT%2F2019-10-08%2F2019-10-17%2F1%2F0%2F0
Mie 09/10/20192019-10-09Mie 16/10/20192019-10-167ConexionesVer disponibilidad>10https://an.despegar.com/ad/1040?q=shop%2Fflights%2Fresults%2Froundtrip%2FBUE%2FNAT%2F2019-10-09%2F2019-10-16%2F1%2F0%2F0
Jue 10/10/20192019-10-10Jue 17/10/20192019-10-177ConexionesVer disponibilidad>10https://an.despegar.com/ad/1040?q=shop%2Fflights%2Fresults%2Froundtrip%2FBUE%2FNAT%2F2019-10-10%2F2019-10-17%2F1%2F0%2F0
Mie 16/10/20192019-10-16Jue 24/10/20192019-10-248ConexionesVer disponibilidad>10https://an.despegar.com/ad/1040?q=shop%2Fflights%2Fresults%2Froundtrip%2FBUE%2FNAT%2F2019-10-16%2F2019-10-24%2F1%2F0%2F0
Vie 18/10/20192019-10-18Vie 25/10/20192019-10-257ConexionesVer disponibilidad>10https://an.despegar.com/ad/1040?q=shop%2Fflights%2Fresults%2Froundtrip%2FBUE%2FNAT%2F2019-10-18%2F2019-10-25%2F1%2F0%2F0
Vie 18/10/20192019-10-18Sab 26/10/20192019-10-268ConexionesVer disponibilidad>10https://an.despegar.com/ad/1040?q=shop%2Fflights%2Fresults%2Froundtrip%2FBUE%2FNAT%2F2019-10-18%2F2019-10-26%2F1%2F0%2F0
Sab 19/10/20192019-10-19Sab 26/10/20192019-10-267ConexionesVer disponibilidad>10https://an.despegar.com/ad/1040?q=shop%2Fflights%2Fresults%2Froundtrip%2FBUE%2FNAT%2F2019-10-19%2F2019-10-26%2F1%2F0%2F0
Mar 22/10/20192019-10-22Jue 31/10/20192019-10-319ConexionesVer disponibilidad>10https://an.despegar.com/ad/1040?q=shop%2Fflights%2Fresults%2Froundtrip%2FBUE%2FNAT%2F2019-10-22%2F2019-10-31%2F1%2F0%2F0
Jue 24/10/20192019-10-24Jue 31/10/20192019-10-317ConexionesVer disponibilidad>10https://an.despegar.com/ad/1040?q=shop%2Fflights%2Fresults%2Froundtrip%2FBUE%2FNAT%2F2019-10-24%2F2019-10-31%2F1%2F0%2F0
Lun 28/10/20192019-10-28Sab 09/11/20192019-11-0912ConexionesVer disponibilidad>10https://an.despegar.com/ad/1040?q=shop%2Fflights%2Fresults%2Froundtrip%2FBUE%2FNAT%2F2019-10-28%2F2019-11-09%2F1%2F0%2F0
Lun 04/11/20192019-11-04Mar 12/11/20192019-11-128ConexionesVer disponibilidad>11https://an.despegar.com/ad/1040?q=shop%2Fflights%2Fresults%2Froundtrip%2FBUE%2FNAT%2F2019-11-04%2F2019-11-12%2F1%2F0%2F0
Lun 11/11/20192019-11-11Jue 21/11/20192019-11-2110ConexionesVer disponibilidad>11https://an.despegar.com/ad/1040?q=shop%2Fflights%2Fresults%2Froundtrip%2FBUE%2FNAT%2F2019-11-11%2F2019-11-21%2F1%2F0%2F0
Lun 11/11/20192019-11-11Mar 19/11/20192019-11-198ConexionesVer disponibilidad>11https://an.despegar.com/ad/1040?q=shop%2Fflights%2Fresults%2Froundtrip%2FBUE%2FNAT%2F2019-11-11%2F2019-11-19%2F1%2F0%2F0
Lun 18/11/20192019-11-18Sab 30/11/20192019-11-3012ConexionesVer disponibilidad>11https://an.despegar.com/ad/1040?q=shop%2Fflights%2Fresults%2Froundtrip%2FBUE%2FNAT%2F2019-11-18%2F2019-11-30%2F1%2F0%2F0
Sab 23/11/20192019-11-23Sab 30/11/20192019-11-307ConexionesVer disponibilidad>11https://an.despegar.com/ad/1040?q=shop%2Fflights%2Fresults%2Froundtrip%2FBUE%2FNAT%2F2019-11-23%2F2019-11-30%2F1%2F0%2F0

Ver disponibilidad y otras opciones

Información general sobre Natal

Natal, que en español significa Navidad, es una ciudad brasileña localizada en el estado de Rio Grande do Norte. Atravesada por el río Potengi, la capital nordestina cuenta con playas, dunas y diferentes atracciones históricas. Anualmente recibe a dos millones de turistas y es la puerta de entrada hacia otros importantes destinos del estado.

Descargá gratis nuestra nueva app para Android y iOS.
Suscribite a las notificaciones de Chrome y Safari.
Seguinos en Facebook, Twitter e Instagram
Suscribite a nuestro newsletter aquí.